createdAt,value
2014-07-26T06:03:06.793Z,13
2014-07-26T06:03:24.402Z,13
2014-07-26T06:03:42.639Z,16
2014-07-26T06:04:00.248Z,19
2014-07-26T06:04:17.233Z,20
2014-07-26T06:04:34.217Z,20
2014-07-26T06:04:52.453Z,20
2014-07-26T06:05:09.438Z,20
2014-07-26T06:05:27.953Z,20
2014-07-26T06:05:45.690Z,20
2014-07-26T06:06:03.940Z,21
2014-07-26T06:06:21.549Z,21
2014-07-26T06:06:39.158Z,21
2014-07-26T06:06:57.535Z,22
2014-07-26T06:07:15.770Z,23
2014-07-26T06:07:32.754Z,20
2014-07-26T06:07:50.504Z,24
2014-07-26T06:08:06.866Z,25
2014-07-26T06:08:22.584Z,26
2014-07-26T06:08:39.569Z,26
2014-07-26T06:08:57.805Z,26
2014-07-26T06:09:15.414Z,27
2014-07-26T06:09:33.180Z,27
2014-07-26T06:09:51.414Z,27
2014-07-26T06:10:09.666Z,28
2014-07-26T06:10:28.041Z,28
2014-07-26T06:10:46.416Z,28
2014-07-26T06:11:04.668Z,28
2014-07-26T06:11:22.903Z,28
2014-07-26T06:11:40.028Z,28
2014-07-26T06:11:57.013Z,28
2014-07-26T06:12:14.748Z,27
2014-07-26T06:12:33.123Z,27
2014-07-26T06:12:50.873Z,27
2014-07-26T06:13:08.626Z,26
2014-07-26T06:13:25.735Z,26
2014-07-26T06:13:42.735Z,26
2014-07-26T06:14:00.971Z,25
2014-07-26T06:14:17.956Z,25
2014-07-26T06:14:36.190Z,26
2014-07-26T06:14:54.424Z,25
2014-07-26T06:15:12.176Z,25
2014-07-26T06:15:28.536Z,26
2014-07-26T06:15:45.520Z,26
2014-07-26T06:16:02.630Z,26
2014-07-26T06:16:20.882Z,26
2014-07-26T06:16:37.241Z,27
2014-07-26T06:16:54.225Z,27
2014-07-26T06:17:11.212Z,27
2014-07-26T06:17:29.462Z,27
2014-07-26T06:17:46.571Z,28
2014-07-26T06:18:04.180Z,28
2014-07-26T06:18:21.307Z,28
2014-07-26T06:18:38.307Z,28
2014-07-26T06:18:54.651Z,29
2014-07-26T06:19:12.263Z,29
2014-07-26T06:19:29.872Z,30
2014-07-26T06:19:47.497Z,30
2014-07-26T06:20:05.106Z,31
2014-07-26T06:20:22.093Z,30
2014-07-26T06:20:39.077Z,32
2014-07-26T06:20:55.436Z,32
2014-07-26T06:21:12.423Z,32
2014-07-26T06:21:30.048Z,32
2014-07-26T06:21:47.657Z,31
2014-07-26T06:22:06.032Z,31
2014-07-26T06:22:24.269Z,31
2014-07-26T06:22:42.644Z,31
2014-07-26T06:23:00.894Z,30
2014-07-26T06:23:19.129Z,30
2014-07-26T06:23:37.363Z,29
2014-07-26T06:23:54.973Z,29
2014-07-26T06:24:12.584Z,29
2014-07-26T06:24:29.568Z,29
2014-07-26T06:24:47.818Z,29
2014-07-26T06:25:06.053Z,29
2014-07-26T06:25:23.680Z,30
2014-07-26T06:25:41.289Z,30
2014-07-26T06:25:58.414Z,29
2014-07-26T06:26:15.414Z,29
2014-07-26T06:26:33.776Z,28
2014-07-26T06:26:50.135Z,28
2014-07-26T06:27:07.744Z,28
2014-07-26T06:27:24.871Z,28
2014-07-26T06:27:41.856Z,28
2014-07-26T06:27:59.606Z,29
2014-07-26T06:28:17.215Z,29
2014-07-26T06:28:35.468Z,29
2014-07-26T06:28:51.952Z,29
2014-07-26T06:29:09.562Z,29
2014-07-26T06:29:26.548Z,29
2014-07-26T06:29:43.533Z,29
2014-07-26T06:29:59.892Z,29
2014-07-26T06:30:18.126Z,30
2014-07-26T06:30:34.487Z,29
2014-07-26T06:30:52.096Z,29
2014-07-26T06:31:09.080Z,29
2014-07-26T06:31:26.692Z,29
2014-07-26T06:31:44.942Z,29
2014-07-26T06:32:01.942Z,29
2014-07-26T06:32:20.161Z,29
2014-07-26T06:32:38.413Z,29
2014-07-26T06:32:54.756Z,30
2014-07-26T06:33:12.381Z,30
2014-07-26T06:33:29.508Z,30
2014-07-26T06:33:47.118Z,30
2014-07-26T06:34:04.727Z,30
2014-07-26T06:34:22.963Z,31
2014-07-26T06:34:40.823Z,31
2014-07-26T06:34:57.932Z,31
2014-07-26T06:35:15.557Z,31
2014-07-26T06:35:33.794Z,31
2014-07-26T06:35:50.778Z,31
2014-07-26T06:36:09.012Z,31
2014-07-26T06:36:26.764Z,32
2014-07-26T18:08:29.390Z,9
2014-07-26T18:08:46.984Z,9
2014-07-26T18:09:05.203Z,9
2014-07-26T18:09:22.142Z,41
2014-07-26T18:09:39.111Z,41
2014-07-26T18:09:56.064Z,41
2014-07-26T18:10:13.799Z,41
2014-07-26T18:10:31.379Z,41
2014-07-26T18:10:48.472Z,41
2014-07-26T18:11:06.066Z,42
2014-07-26T18:11:24.270Z,41
2014-07-26T18:11:41.864Z,42
2014-07-26T18:11:59.442Z,41
2014-07-26T18:12:17.036Z,42
2014-07-26T18:12:34.633Z,42
2014-07-26T18:12:52.211Z,39
2014-07-26T18:13:09.164Z,40
2014-07-26T18:13:27.384Z,40
2014-07-26T18:13:45.618Z,40
2014-07-26T18:14:02.571Z,42
2014-07-26T18:14:20.790Z,40
2014-07-26T18:14:37.137Z,40
2014-07-26T18:14:54.090Z,40
2014-07-26T18:15:11.684Z,40
2014-07-26T18:15:29.889Z,39
2014-07-26T18:15:47.482Z,40
2014-07-26T18:16:03.826Z,41
2014-07-26T18:16:21.404Z,41
2014-07-26T18:16:39.625Z,41
2014-07-26T18:16:57.844Z,39
2014-07-26T18:17:16.063Z,38
2014-07-26T18:17:34.283Z,39
2014-07-26T18:17:52.502Z,41
2014-07-26T18:18:09.455Z,40
2014-07-26T18:18:27.051Z,40
2014-07-26T18:18:45.270Z,40
2014-07-26T18:19:02.238Z,39
2014-07-26T18:19:20.457Z,39
2014-07-26T18:19:37.411Z,41
2014-07-26T18:19:54.380Z,39
2014-07-26T18:20:11.474Z,38
2014-07-26T18:20:30.148Z,37
2014-07-26T18:20:47.101Z,40
2014-07-26T18:21:04.820Z,39
2014-07-26T18:21:23.038Z,39
2014-07-26T18:21:40.618Z,40
2014-07-26T18:21:57.572Z,39
2014-07-26T18:22:15.806Z,39
2014-07-26T18:22:32.136Z,38
2014-07-26T18:22:50.339Z,40
2014-07-26T18:23:08.558Z,40
2014-07-26T18:23:25.669Z,39
2014-07-26T18:23:42.622Z,39
2014-07-26T18:24:00.841Z,40
2014-07-26T18:24:18.435Z,39
2014-07-26T18:24:35.390Z,40
2014-07-26T18:24:52.343Z,40
2014-07-26T18:25:10.562Z,39
2014-07-26T18:25:28.158Z,39
2014-07-26T18:25:45.736Z,39
2014-07-26T18:26:03.330Z,39
2014-07-26T18:26:20.298Z,40
2014-07-26T18:26:37.253Z,40
2014-07-26T18:26:54.847Z,38
2014-07-26T18:27:11.175Z,39
2014-07-26T18:27:28.771Z,38
2014-07-26T18:27:46.990Z,39
2014-07-26T18:28:03.943Z,40
2014-07-26T18:28:20.896Z,39
2014-07-26T18:28:38.492Z,38
2014-07-26T18:28:55.445Z,38
2014-07-26T18:29:12.414Z,39
2014-07-26T18:29:30.150Z,38
2014-07-26T18:29:47.119Z,39
2014-07-26T18:30:04.713Z,39
2014-07-26T18:30:21.041Z,36
2014-07-26T18:30:38.636Z,38
2014-07-26T18:30:56.355Z,37
2014-07-26T18:31:13.449Z,37
2014-07-26T18:31:29.778Z,38
2014-07-26T18:31:47.372Z,39
2014-07-26T18:32:04.341Z,39
2014-07-26T18:32:21.294Z,39
2014-07-26T18:32:39.514Z,37
2014-07-26T18:32:56.608Z,38
2014-07-26T18:33:14.827Z,38
2014-07-26T18:33:33.032Z,37
2014-07-26T18:33:50.626Z,38
2014-07-26T18:34:07.595Z,36
2014-07-26T18:34:25.815Z,35
2014-07-26T18:34:43.534Z,37
2014-07-26T18:35:00.628Z,38
2014-07-26T18:35:18.862Z,37
2014-07-26T18:35:36.442Z,38
2014-07-26T18:35:54.036Z,37
2014-07-26T18:36:11.005Z,37
2014-07-26T18:36:28.726Z,19
2014-07-26T18:36:46.319Z,19
2014-07-26T18:37:03.897Z,19
2014-07-26T18:37:22.116Z,19
2014-07-26T18:37:39.070Z,19
2014-07-26T18:37:56.039Z,19
2014-07-26T18:38:14.258Z,19
2014-07-26T18:38:31.855Z,19
2014-07-26T18:38:49.448Z,19
2014-07-26T18:39:07.042Z,19
2014-07-26T18:39:25.386Z,19
2014-07-26T18:39:43.606Z,18
2014-07-26T18:40:01.824Z,19
2014-07-26T18:40:19.418Z,19
2014-07-26T18:40:37.014Z,18
2014-07-26T18:40:54.592Z,19
2014-07-26T18:41:11.561Z,19
2014-07-26T18:41:29.904Z,19
2014-07-26T18:41:47.501Z,18
2014-07-26T18:42:05.720Z,18
2014-07-26T18:42:23.314Z,18
2014-07-26T18:42:40.894Z,19
2014-07-26T18:42:57.863Z,19
2014-07-26T18:43:16.378Z,18
2014-07-26T18:43:33.956Z,18
2014-07-26T18:43:52.177Z,18
2014-07-26T18:44:40.506Z,19
2014-07-26T18:44:58.100Z,18
2014-07-26T18:45:15.678Z,18
2014-07-26T18:45:32.647Z,18
2014-07-26T18:45:50.868Z,19
2014-07-26T18:46:08.586Z,18
2014-07-26T18:46:26.180Z,19
2014-07-26T18:46:43.135Z,19
2014-07-26T18:47:01.354Z,18
2014-07-26T18:47:19.573Z,19
2014-07-26T18:47:37.791Z,19
2014-07-26T18:47:55.372Z,18
2014-07-26T18:48:13.731Z,19
2014-07-26T18:48:30.700Z,18
2014-07-26T18:48:48.906Z,18
2014-07-26T18:49:05.250Z,18
2014-07-26T18:49:22.218Z,18
2014-07-26T18:49:39.796Z,19
2014-07-26T18:49:57.407Z,19
2014-07-26T18:50:15.626Z,18
2014-07-26T18:50:33.204Z,18
2014-07-26T18:50:50.174Z,18
2014-07-26T18:51:07.143Z,19
2014-07-26T18:51:24.737Z,18
2014-07-26T18:51:43.081Z,19
2014-07-26T18:52:00.676Z,18
2014-07-26T18:52:17.630Z,18
2014-07-26T18:52:35.223Z,18
2014-07-26T18:52:53.444Z,18
2014-07-26T18:53:09.788Z,18
2014-07-26T18:53:27.522Z,18
2014-07-26T18:53:44.475Z,18
2014-07-26T18:54:00.805Z,18
2014-07-26T18:54:19.024Z,18
2014-07-26T18:54:36.618Z,18
2014-07-26T18:54:54.214Z,17
2014-07-26T18:55:11.807Z,17
2014-07-26T18:55:29.386Z,18
2014-07-26T18:55:47.620Z,18
2014-07-26T18:56:05.825Z,17
2014-07-26T18:56:22.794Z,18
2014-07-26T18:56:41.013Z,17
2014-07-26T18:56:59.233Z,17
2014-07-26T18:57:16.811Z,18
2014-07-26T18:57:34.640Z,17
2014-07-26T18:57:52.265Z,17
2014-07-26T18:58:09.860Z,18
2014-07-26T18:58:26.813Z,18
2014-07-26T18:58:44.407Z,18
2014-07-26T18:59:01.378Z,17
2014-07-26T18:59:18.347Z,17
2014-07-26T18:59:35.300Z,17
2014-07-26T18:59:53.519Z,17
2014-07-26T19:00:11.113Z,18
2014-07-26T19:00:28.707Z,17
2014-07-26T19:00:46.301Z,18
2014-07-26T19:01:03.882Z,17
2014-07-26T19:01:20.835Z,18
2014-07-26T19:01:39.054Z,17
2014-07-26T19:01:56.650Z,17
2014-07-26T19:02:14.228Z,17
2014-07-26T19:02:32.462Z,17
2014-07-26T19:02:49.431Z,17
2014-07-26T19:03:07.652Z,18
2014-07-26T19:03:26.073Z,17
2014-07-26T19:03:42.402Z,17
2014-07-26T19:03:58.870Z,17
2014-07-26T19:04:15.841Z,17
2014-07-26T19:04:33.419Z,18
2014-07-26T19:04:51.013Z,17
2014-07-26T19:05:08.609Z,17
2014-07-26T19:05:25.562Z,17
2014-07-26T19:05:43.156Z,16
2014-07-26T19:06:00.749Z,17
2014-07-26T19:06:18.470Z,17
2014-07-26T19:06:36.048Z,17
2014-07-26T19:06:53.017Z,17
2014-07-26T19:07:41.347Z,17
2014-07-26T19:07:58.925Z,17
2014-07-26T19:08:16.505Z,17
2014-07-26T19:08:33.474Z,17
2014-07-26T19:08:51.068Z,16
2014-07-26T19:09:08.021Z,17
2014-07-26T19:09:25.131Z,17
2014-07-26T19:09:42.725Z,17
2014-07-26T19:10:00.303Z,17
2014-07-26T19:10:17.900Z,17
2014-07-26T19:10:36.119Z,17
2014-07-26T19:11:14.886Z,17
2014-07-26T19:11:33.089Z,17
2014-07-26T19:11:50.683Z,17
2014-07-26T19:12:06.386Z,16
2014-07-26T19:12:23.356Z,17
2014-07-26T19:12:41.575Z,17
2014-07-26T19:12:59.294Z,17
2014-07-26T19:13:16.265Z,17
2014-07-26T19:13:33.218Z,17
2014-07-26T19:13:50.187Z,16
2014-07-26T19:14:07.156Z,16
2014-07-26T19:14:24.736Z,16
2014-07-26T19:14:42.955Z,17
2014-07-26T19:15:00.549Z,17
2014-07-26T19:15:18.144Z,17
2014-07-26T19:15:36.363Z,17
2014-07-26T19:15:54.582Z,17
2014-07-26T19:16:12.785Z,16
2014-07-26T19:16:30.380Z,17
2014-07-26T19:16:47.989Z,17
2014-07-26T19:17:04.958Z,17
2014-07-26T19:17:21.289Z,17
2014-07-26T19:17:38.898Z,17
2014-07-26T19:17:56.476Z,16
2014-07-26T19:18:14.695Z,16
2014-07-26T19:18:32.290Z,16
2014-07-26T19:18:47.993Z,17
2014-07-26T19:19:07.134Z,16
2014-07-26T19:19:24.729Z,17
2014-07-26T19:19:42.948Z,16
2014-07-26T19:20:00.526Z,16
2014-07-26T19:20:18.136Z,17
2014-07-26T19:20:36.498Z,16
2014-07-26T19:20:54.701Z,16
2014-07-26T19:21:11.670Z,16
2014-07-26T19:21:29.890Z,17
2014-07-26T19:21:47.483Z,16
2014-07-26T19:22:03.812Z,17
2014-07-26T19:22:20.765Z,17
2014-07-26T19:22:38.360Z,16
2014-07-26T19:22:55.939Z,16
2014-07-26T19:23:12.907Z,17
2014-07-26T19:23:30.503Z,16
2014-07-26T19:23:48.097Z,16
2014-07-26T19:24:05.066Z,17
2014-07-26T19:24:22.659Z,16
2014-07-26T19:24:40.864Z,16
2014-07-26T19:24:58.458Z,16
2014-07-26T19:25:16.677Z,16
2014-07-26T19:25:34.257Z,16
2014-07-26T19:25:50.585Z,17
2014-07-26T19:26:08.304Z,17
2014-07-26T19:26:25.900Z,16
2014-07-26T19:26:43.493Z,16
2014-07-26T19:27:00.447Z,17
2014-07-26T19:27:18.040Z,16
2014-07-26T19:27:36.261Z,17
2014-07-26T19:27:53.855Z,17
2014-07-26T19:28:12.058Z,16
2014-07-26T19:28:30.279Z,17
2014-07-26T19:28:48.497Z,16
2014-07-26T19:29:06.091Z,17
2014-07-26T19:29:23.685Z,16
2014-07-26T19:29:41.281Z,16
2014-07-26T19:29:58.265Z,15
2014-07-26T19:30:15.843Z,15
2014-07-26T19:30:33.439Z,16
2014-07-26T19:30:51.033Z,16
2014-07-26T19:31:08.033Z,16
2014-07-26T19:31:26.253Z,16
2014-07-26T19:31:43.847Z,16
2014-07-26T19:32:01.441Z,16
2014-07-26T19:32:19.035Z,16
2014-07-26T19:32:36.755Z,16
2014-07-26T19:32:54.974Z,16
2014-07-26T19:33:11.927Z,16
2014-07-26T19:33:29.522Z,16
2014-07-26T19:33:47.116Z,16
2014-07-26T19:34:05.428Z,15
2014-07-26T19:34:23.663Z,16
2014-07-26T19:34:40.633Z,16
2014-07-26T19:34:58.852Z,16
2014-07-26T19:35:17.055Z,16
2014-07-26T19:35:34.651Z,16
2014-07-26T19:35:52.260Z,16
2014-07-26T19:36:31.653Z,16
2014-07-26T19:36:49.231Z,16
2014-07-26T19:37:06.825Z,16
2014-07-26T19:37:25.044Z,16
2014-07-26T19:37:43.312Z,16
2014-07-26T19:38:00.905Z,16
2014-07-26T19:38:18.499Z,16
2014-07-26T19:38:34.871Z,16
2014-07-26T19:38:51.840Z,16
2014-07-26T19:39:08.793Z,16
2014-07-26T19:39:27.012Z,15
2014-07-26T19:39:44.651Z,16
2014-07-26T19:40:02.994Z,16
2014-07-26T19:40:20.588Z,16
2014-07-26T19:40:38.228Z,16
2014-07-26T19:40:55.822Z,16
2014-07-26T19:41:14.337Z,16
2014-07-26T19:41:31.931Z,16
2014-07-26T19:41:50.194Z,15
2014-07-26T19:42:08.397Z,16
2014-07-26T19:42:25.991Z,15
2014-07-26T19:42:43.616Z,16
2014-07-26T19:43:01.195Z,16
2014-07-26T19:43:18.788Z,15
2014-07-26T19:43:36.382Z,16
2014-07-26T19:43:53.994Z,16
2014-07-26T19:44:11.572Z,16
2014-07-26T19:44:29.181Z,16
2014-07-26T19:44:47.401Z,16
2014-07-26T19:45:05.745Z,16
2014-07-26T19:45:23.339Z,16
2014-07-26T19:45:41.575Z,15
2014-07-26T19:46:00.090Z,16
2014-07-26T19:46:17.684Z,16
2014-07-26T19:46:35.278Z,16
2014-07-26T19:46:52.890Z,16
2014-07-26T19:47:10.561Z,16
2014-07-26T19:47:27.530Z,16
2014-07-26T19:47:45.120Z,16
2014-07-26T19:48:02.105Z,16
2014-07-26T19:48:19.683Z,16
2014-07-26T19:48:37.292Z,16
2014-07-26T19:48:55.519Z,16
2014-07-26T19:49:12.472Z,16
2014-07-26T19:49:30.691Z,16
2014-07-26T19:49:47.668Z,16
2014-07-26T19:50:04.636Z,16
2014-07-26T19:50:21.589Z,16
2014-07-26T19:51:10.050Z,16
2014-07-26T19:51:27.643Z,16
2014-07-26T19:51:45.221Z,16
2014-07-26T19:52:02.823Z,16
2014-07-26T19:52:20.417Z,16
2014-07-26T19:52:38.636Z,16
2014-07-26T19:52:56.265Z,16
2014-07-26T19:53:13.858Z,16
2014-07-26T19:53:30.812Z,16
2014-07-26T19:53:49.030Z,16
2014-07-26T19:54:06.612Z,16
2014-07-26T19:54:24.206Z,16
2014-07-26T19:54:42.550Z,16
2014-07-26T19:54:59.523Z,16
2014-07-26T19:55:17.116Z,16
2014-07-26T19:55:34.695Z,16
2014-07-26T19:55:52.913Z,16
2014-07-26T19:56:10.511Z,16
2014-07-26T19:56:28.105Z,16
2014-07-26T19:56:46.324Z,16
2014-07-26T19:57:03.292Z,16
2014-07-26T19:57:21.499Z,16
2014-07-26T19:57:39.093Z,16
2014-07-26T19:57:57.312Z,16
2014-07-26T19:58:14.909Z,16
2014-07-26T19:58:32.502Z,16
2014-07-26T19:58:50.096Z,16
2014-07-26T19:59:07.674Z,16
2014-07-26T19:59:25.271Z,16
2014-07-26T19:59:43.490Z,16
2014-07-26T20:00:31.821Z,16
2014-07-26T20:00:49.415Z,16
2014-07-26T20:01:06.993Z,16
2014-07-26T20:01:23.979Z,16
2014-07-26T20:01:42.198Z,16
2014-07-26T20:01:59.792Z,16
2014-07-26T20:02:18.013Z,16
2014-07-26T20:02:35.592Z,16
2014-07-26T20:02:53.185Z,16
2014-07-26T20:03:10.779Z,16
2014-07-26T20:03:29.000Z,16
2014-07-26T20:03:46.594Z,16
2014-07-26T20:04:04.187Z,16
2014-07-26T20:04:21.158Z,16
2014-07-26T20:04:39.392Z,16
2014-07-26T20:04:55.721Z,16
2014-07-26T20:05:12.674Z,16
2014-07-26T20:05:30.895Z,16
2014-07-26T20:05:49.114Z,16
2014-07-26T20:06:07.552Z,16
2014-07-26T20:06:25.758Z,16
2014-07-26T20:06:43.977Z,16
2014-07-26T20:07:00.945Z,15
2014-07-26T20:07:19.273Z,16
2014-07-26T20:07:37.463Z,16
2014-07-26T20:07:54.432Z,16
2014-07-26T20:08:12.010Z,16
2014-07-26T20:08:28.964Z,16
2014-07-26T20:08:46.558Z,16
2014-07-26T20:09:02.886Z,16
2014-07-26T20:09:19.870Z,16
2014-07-26T20:09:37.467Z,16
2014-07-26T20:09:55.670Z,16
2014-07-26T20:10:14.029Z,16
2014-07-26T20:10:31.625Z,16
2014-07-26T20:10:49.828Z,16
2014-07-26T20:11:08.047Z,16
2014-07-26T20:11:25.643Z,16
2014-07-26T20:11:43.362Z,16
2014-07-26T20:12:00.971Z,16
2014-07-26T20:12:17.924Z,16
2014-07-26T20:12:36.144Z,15
2014-07-26T20:12:53.738Z,16
2014-07-26T20:13:11.331Z,16
2014-07-26T20:13:29.552Z,16
2014-07-26T20:13:47.896Z,16
2014-07-26T20:14:05.490Z,16
2014-07-26T20:14:23.708Z,16
2014-07-26T20:14:41.929Z,16
2014-07-26T20:15:00.148Z,16
2014-07-26T20:15:17.117Z,16
2014-07-26T20:15:34.697Z,16
2014-07-26T20:15:52.915Z,16
2014-07-26T20:16:11.134Z,15
2014-07-26T20:16:28.871Z,16
2014-07-26T20:16:47.074Z,16
2014-07-26T20:17:05.433Z,16
2014-07-26T20:17:23.027Z,16
2014-07-26T20:17:41.373Z,16
2014-07-26T20:17:58.966Z,16
2014-07-26T20:18:16.560Z,16
2014-07-26T20:18:34.140Z,16
2014-07-26T20:18:51.734Z,16
2014-07-26T20:19:09.953Z,16
2014-07-26T20:19:28.171Z,16
2014-07-26T20:19:46.392Z,16
2014-07-26T20:20:03.361Z,16
2014-07-26T20:20:20.939Z,16
2014-07-26T20:20:37.910Z,16
2014-07-26T20:20:55.504Z,16
2014-07-26T20:21:12.472Z,16
2014-07-26T20:21:30.066Z,16
2014-07-26T20:21:47.646Z,16
2014-07-26T20:22:05.865Z,16
2014-07-26T20:22:23.459Z,16
2014-07-26T20:22:41.679Z,16
2014-07-26T20:22:59.883Z,16
2014-07-26T20:23:18.117Z,16
2014-07-26T20:23:36.338Z,16
2014-07-26T20:23:54.556Z,16
2014-07-26T20:24:12.150Z,16
2014-07-26T20:24:29.744Z,16
2014-07-26T20:24:47.340Z,17
2014-07-26T20:25:04.293Z,16
2014-07-26T20:25:21.887Z,16
2014-07-26T20:25:39.622Z,16
2014-07-26T20:25:57.200Z,16
2014-07-26T20:26:14.794Z,16
2014-07-26T20:26:33.013Z,16
2014-07-26T20:26:50.609Z,16
2014-07-26T20:27:07.578Z,16
2014-07-26T20:27:25.922Z,16
2014-07-26T20:27:43.518Z,16
2014-07-26T20:28:01.111Z,16
2014-07-26T20:28:18.705Z,16
2014-07-26T20:28:35.658Z,16
2014-07-26T20:28:52.613Z,16
2014-07-26T20:29:08.957Z,16
2014-07-26T20:29:26.551Z,16
2014-07-26T20:29:44.145Z,16
2014-07-26T20:30:01.740Z,16
2014-07-26T20:30:19.959Z,16
2014-07-26T20:30:37.553Z,16
2014-07-26T20:30:55.149Z,16
2014-07-26T20:31:12.727Z,16
2014-07-26T20:31:30.961Z,16
2014-07-26T20:31:47.930Z,16
2014-07-26T20:32:05.759Z,17
2014-07-26T20:32:22.681Z,16
2014-07-26T20:32:40.900Z,16
2014-07-26T20:32:59.120Z,16
2014-07-26T20:33:16.073Z,17
2014-07-26T20:33:33.667Z,16
2014-07-26T20:33:51.905Z,16
2014-07-26T20:34:09.483Z,16
2014-07-26T20:34:27.701Z,16
2014-07-26T20:34:45.920Z,16
2014-07-26T20:35:04.140Z,16
2014-07-26T20:35:22.359Z,17
2014-07-26T20:35:39.952Z,16
2014-07-26T20:35:57.548Z,16
2014-07-26T20:36:15.126Z,16
2014-07-26T20:36:32.720Z,16
2014-07-26T20:36:50.939Z,16
2014-07-26T20:37:07.910Z,16
2014-07-26T20:37:25.488Z,16
2014-07-26T20:37:43.706Z,16
2014-07-26T20:38:01.300Z,16
2014-07-26T20:38:18.272Z,16
2014-07-26T20:38:35.866Z,16
2014-07-26T20:38:53.444Z,17
2014-07-26T20:39:10.415Z,16
2014-07-26T20:39:27.993Z,16
2014-07-26T20:39:44.961Z,16
2014-07-26T20:40:02.555Z,16
2014-07-26T20:40:20.775Z,17
2014-07-26T20:40:38.369Z,16
2014-07-26T20:40:55.947Z,16
2014-07-26T20:41:14.168Z,17
2014-07-26T20:41:31.761Z,17
2014-07-26T20:41:49.480Z,16
2014-07-26T20:42:07.076Z,17
2014-07-26T20:42:25.295Z,16
2014-07-26T20:42:42.873Z,16
2014-07-26T20:43:00.466Z,16
2014-07-26T20:43:18.063Z,16
2014-07-26T20:43:35.657Z,16
2014-07-26T20:43:53.376Z,16
2014-07-26T20:44:11.595Z,16
2014-07-26T20:44:29.189Z,16
2014-07-26T20:44:47.408Z,16
2014-07-26T20:45:05.783Z,16
2014-07-26T20:45:23.363Z,17
2014-07-26T20:45:40.941Z,17
2014-07-26T20:45:59.472Z,16
2014-07-26T20:46:17.694Z,16
2014-07-26T20:46:35.288Z,17
2014-07-26T20:46:53.507Z,16
2014-07-26T20:47:11.085Z,17
2014-07-26T20:47:28.196Z,16
2014-07-26T20:47:46.415Z,16
2014-07-26T20:48:03.993Z,17
2014-07-26T20:48:22.214Z,16
2014-07-26T20:48:40.433Z,16
2014-07-26T20:48:57.401Z,16
2014-07-26T20:49:15.604Z,16
2014-07-26T20:49:33.199Z,16
2014-07-26T20:49:50.793Z,16
2014-07-26T20:50:07.762Z,16
2014-07-26T20:50:24.715Z,16
2014-07-26T20:50:42.311Z,17
2014-07-26T20:50:59.904Z,17
2014-07-26T20:51:17.498Z,16
2014-07-26T20:51:35.078Z,16
2014-07-26T20:51:52.047Z,17
2014-07-26T20:52:09.625Z,16
2014-07-26T20:52:27.861Z,16
2014-07-26T20:52:46.080Z,16
2014-07-26T20:53:03.674Z,17
2014-07-26T20:53:21.268Z,16
2014-07-26T20:53:38.863Z,16
2014-07-26T20:53:55.817Z,16
2014-07-26T20:54:12.785Z,16
2014-07-26T20:54:30.506Z,17
2014-07-26T20:54:47.475Z,16
2014-07-26T20:55:05.069Z,17
2014-07-26T20:55:23.287Z,16
2014-07-26T20:55:41.508Z,17
2014-07-26T20:55:59.086Z,16
2014-07-26T20:56:17.321Z,16
2014-07-26T20:56:34.916Z,17
2014-07-26T20:56:52.494Z,16
2014-07-26T20:57:10.088Z,16
2014-07-26T20:57:27.683Z,16
2014-07-26T20:57:44.636Z,16
2014-07-26T20:58:01.605Z,16
2014-07-26T20:58:19.824Z,16
2014-07-26T20:58:37.419Z,16
2014-07-26T20:58:55.013Z,16
2014-07-26T20:59:13.216Z,16
2014-07-26T20:59:31.624Z,16
2014-07-26T20:59:49.203Z,17
2014-07-26T21:00:06.796Z,16
2014-07-26T21:00:25.158Z,16
2014-07-26T21:00:42.111Z,5
2014-07-26T21:00:59.080Z,7
2014-07-26T21:01:17.283Z,6
2014-07-26T21:01:34.863Z,6
2014-07-26T21:01:53.082Z,6
2014-07-26T21:02:11.300Z,6
2014-07-26T21:02:28.880Z,6
2014-07-26T21:02:47.115Z,7
2014-07-26T21:03:05.318Z,6
2014-07-26T21:03:23.537Z,8
2014-07-26T21:03:41.132Z,0
2014-07-26T21:03:59.476Z,0
2014-07-26T21:04:17.070Z,0
2014-07-26T21:04:34.650Z,0
2014-07-26T21:04:53.181Z,0
2014-07-26T21:05:10.759Z,0
2014-07-26T21:05:28.355Z,0
2014-07-26T21:05:45.933Z,0
2014-07-26T21:06:04.277Z,0
2014-07-26T21:06:22.011Z,0
2014-07-26T21:06:40.217Z,0
2014-07-26T21:06:57.185Z,0
2014-07-26T21:07:14.779Z,0
2014-07-26T21:07:32.359Z,0
2014-07-26T21:07:49.953Z,0
2014-07-26T21:08:07.672Z,0
2014-07-26T21:08:24.765Z,0
2014-07-26T21:08:42.361Z,0
2014-07-26T21:08:59.939Z,0
2014-07-26T21:09:18.158Z,0
2014-07-26T21:09:35.752Z,0
2014-07-26T21:09:53.332Z,0
2014-07-26T21:10:10.941Z,0
2014-07-26T21:10:28.644Z,0
2014-07-26T21:10:46.240Z,0
2014-07-26T21:11:04.459Z,0
2014-07-26T21:11:22.053Z,0
2014-07-26T21:11:39.646Z,0
2014-07-26T21:11:57.852Z,0
2014-07-26T21:12:15.430Z,0
2014-07-26T21:12:33.023Z,0
2014-07-26T21:12:50.619Z,0
2014-07-26T21:13:08.197Z,0
2014-07-26T21:13:25.791Z,0
2014-07-26T21:13:43.371Z,0
2014-07-26T21:14:01.590Z,0
2014-07-26T21:14:19.184Z,0
2014-07-26T21:14:37.387Z,0
2014-07-26T21:14:54.983Z,0
2014-07-26T21:15:12.576Z,0
2014-07-26T21:15:30.795Z,0
2014-07-26T21:15:49.016Z,0
2014-07-26T21:16:07.219Z,0
2014-07-26T21:16:24.313Z,0
2014-07-26T21:16:42.516Z,0
2014-07-26T21:17:00.737Z,0
2014-07-26T21:17:17.705Z,0
2014-07-26T21:17:35.908Z,0
2014-07-26T21:17:54.254Z,0
2014-07-26T21:18:12.473Z,0
2014-07-26T21:18:30.192Z,0
2014-07-26T21:18:48.412Z,0
2014-07-26T21:19:05.366Z,0
2014-07-26T21:19:22.334Z,0
2014-07-26T21:19:39.287Z,0
2014-07-26T21:19:57.507Z,0
2014-07-26T21:20:15.085Z,0
2014-07-26T21:20:32.679Z,0
2014-07-26T21:20:50.257Z,0
2014-07-26T21:21:08.479Z,0
2014-07-26T21:21:26.057Z,0
2014-07-26T21:21:44.276Z,0
2014-07-26T21:22:02.622Z,0
2014-07-26T21:22:20.200Z,0
2014-07-26T21:22:37.778Z,0
2014-07-26T21:22:55.997Z,0
2014-07-26T21:23:13.592Z,0
2014-07-26T21:23:31.936Z,0
2014-07-26T21:23:49.514Z,0
2014-07-26T21:24:07.735Z,0
2014-07-26T21:24:24.704Z,0
2014-07-26T21:24:42.282Z,0
2014-07-26T21:24:59.860Z,0
2014-07-26T21:25:18.081Z,0
2014-07-26T21:25:35.674Z,0
2014-07-26T21:25:53.893Z,0
2014-07-26T21:26:11.489Z,0
2014-07-26T21:26:29.692Z,0
2014-07-26T21:26:47.911Z,0
2014-07-26T21:27:05.505Z,0
2014-07-26T21:27:23.085Z,0
2014-07-26T21:27:41.288Z,0
2014-07-26T21:27:58.897Z,0
2014-07-26T21:28:16.477Z,0
2014-07-26T21:28:34.071Z,0
2014-07-26T21:28:51.649Z,0
2014-07-26T21:29:09.369Z,0
2014-07-26T21:29:26.963Z,0
2014-07-26T21:29:44.541Z,0
2014-07-26T21:30:02.744Z,0
2014-07-26T21:30:20.481Z,0
2014-07-26T21:30:37.434Z,1
2014-07-26T21:30:55.653Z,0
2014-07-26T21:31:13.249Z,1
2014-07-26T21:31:30.968Z,0
2014-07-26T21:31:47.936Z,1
2014-07-26T21:32:06.140Z,0
2014-07-26T21:32:24.485Z,0
2014-07-26T21:32:42.704Z,0
2014-07-26T21:33:00.282Z,0
2014-07-26T21:33:18.503Z,0
2014-07-26T21:33:36.081Z,0
2014-07-26T21:33:53.675Z,0
2014-07-26T21:34:11.253Z,0
2014-07-26T21:34:28.207Z,0
2014-07-26T21:34:45.941Z,0
2014-07-26T21:35:03.520Z,0
2014-07-26T21:35:21.100Z,0
2014-07-26T21:35:38.693Z,0
2014-07-26T21:35:56.287Z,0
2014-07-26T21:36:12.615Z,0
2014-07-26T21:36:30.211Z,0
2014-07-26T21:36:48.430Z,0
2014-07-26T21:37:06.149Z,0
2014-07-26T21:37:24.370Z,0
2014-07-26T21:37:41.964Z,0
2014-07-26T21:37:59.542Z,0
2014-07-26T21:38:17.762Z,0
2014-07-26T21:38:35.356Z,0
2014-07-26T21:38:52.934Z,0
2014-07-26T21:39:10.512Z,0
2014-07-26T21:39:28.109Z,0
2014-07-26T21:39:45.702Z,0
2014-07-26T21:40:03.281Z,0
2014-07-26T21:40:21.001Z,0
2014-07-26T21:40:39.220Z,0
2014-07-26T21:40:57.423Z,0
2014-07-26T21:41:15.017Z,0
2014-07-26T21:41:32.612Z,0
2014-07-26T21:41:50.205Z,0
2014-07-26T21:42:07.784Z,0
2014-07-26T21:42:25.989Z,0
2014-07-26T21:42:43.567Z,0
2014-07-26T21:43:01.786Z,0
2014-07-26T21:43:18.754Z,0
2014-07-26T21:43:36.334Z,0
2014-07-26T21:43:53.913Z,0
2014-07-26T21:44:12.131Z,0
2014-07-26T21:44:29.711Z,0
2014-07-26T21:44:47.930Z,1
2014-07-26T21:45:04.899Z,0
2014-07-26T21:45:21.836Z,0
2014-07-26T21:46:43.325Z,0
2014-07-26T21:47:00.278Z,0
2014-07-26T21:47:17.872Z,0
2014-07-26T21:47:35.452Z,0
2014-07-26T21:47:53.671Z,0
2014-07-26T21:48:10.624Z,0
2014-07-26T21:48:28.844Z,0
2014-07-26T21:48:46.548Z,0
2014-07-26T21:49:04.157Z,0
2014-07-26T21:49:22.360Z,0
2014-07-26T21:49:40.581Z,0
2014-07-26T21:49:58.284Z,0
2014-07-26T21:50:15.878Z,0
2014-07-26T21:50:33.458Z,0
2014-07-26T21:50:51.067Z,0
2014-07-26T21:51:09.286Z,0
2014-07-26T21:51:26.241Z,0
2014-07-26T21:51:43.835Z,0